Terminal Aerodrome Forecast
Issued by NWS

Home | Current Version | Previous Version | Text Only | Print | Product List | Glossary On
Versions: 1 2 3 4 5 6 7 8 9 10 11 12 13 14
000
FTUS45 KGJT 191733
TAFMTJ
TAF
KMTJ 191733Z 1918/2018 33007KT P6SM VCSH FEW050 BKN070 OVC100
     FM200200 15007KT P6SM BKN100
     FM201000 14005KT P6SM SCT100=

USA.gov is the U.S. government's official web portal to all federal, state and local government web resources and services.